createdAt,value
2022-08-08T00:00:55.783Z,19.30
2022-08-08T00:02:04.024Z,19.31
2022-08-08T00:04:16.037Z,19.32
2022-08-08T00:06:13.517Z,19.31
2022-08-08T00:07:56.315Z,19.33
2022-08-08T00:09:52.355Z,19.34
2022-08-08T00:12:09.619Z,19.34
2022-08-08T00:14:15.038Z,19.30
2022-08-08T00:15:57.663Z,19.28
2022-08-08T00:18:01.861Z,19.24
2022-08-08T00:19:59.540Z,19.21
2022-08-08T00:21:39.650Z,19.23
2022-08-08T00:23:18.696Z,19.22
2022-08-08T00:24:54.621Z,19.21
2022-08-08T00:26:45.422Z,19.22
2022-08-08T00:28:35.817Z,19.20
2022-08-08T00:30:11.236Z,19.17
2022-08-08T00:32:28.230Z,19.14
2022-08-08T00:34:17.911Z,19.09
2022-08-08T00:35:50.319Z,19.06
2022-08-08T00:37:48.222Z,19.05
2022-08-08T00:41:10.512Z,19.03
2022-08-08T00:42:30.391Z,19.03
2022-08-08T00:44:25.279Z,19.00
2022-08-08T00:46:16.448Z,18.99
2022-08-08T00:48:30.254Z,19.00
2022-08-08T11:33:52.366Z,32.35
2022-08-08T11:37:15.082Z,32.46
2022-08-08T11:38:55.007Z,32.63
2022-08-08T11:44:02.050Z,32.86
2022-08-08T11:45:48.190Z,32.91
2022-08-08T11:47:40.001Z,32.92
2022-08-08T11:49:19.769Z,32.96
2022-08-08T11:50:55.516Z,33.01
2022-08-08T11:52:31.677Z,33.05
2022-08-08T11:54:04.490Z,33.11
2022-08-08T11:55:50.579Z,33.15
2022-08-08T11:57:27.688Z,33.13
2022-08-08T11:59:10.797Z,33.10
2022-08-08T12:00:54.244Z,33.18
2022-08-08T12:02:32.719Z,33.23
2022-08-08T12:04:07.043Z,33.30
2022-08-08T12:05:39.205Z,33.29
2022-08-08T12:07:16.631Z,33.30
2022-08-08T12:08:49.898Z,33.33
2022-08-08T12:10:25.119Z,33.41
2022-08-08T12:11:57.468Z,33.42
2022-08-08T12:13:37.834Z,33.36
2022-08-08T12:15:39.966Z,33.46
2022-08-08T12:17:15.283Z,33.54
2022-08-08T12:18:49.164Z,33.57
2022-08-08T12:20:21.502Z,33.42
2022-08-08T12:22:07.969Z,33.25
2022-08-08T12:23:46.945Z,33.17
2022-08-08T12:25:33.883Z,33.17
2022-08-08T12:27:18.229Z,33.24
2022-08-08T12:28:55.509Z,33.24
2022-08-08T12:30:32.566Z,33.20
2022-08-08T12:32:20.113Z,33.08
2022-08-08T12:34:02.805Z,33.01
2022-08-08T12:35:52.735Z,33.09
2022-08-08T12:37:41.266Z,33.15
2022-08-08T12:40:00.976Z,33.32
2022-08-08T12:41:35.073Z,33.40
2022-08-08T12:43:20.647Z,33.44
2022-08-08T12:45:03.701Z,33.44
2022-08-08T12:46:59.548Z,33.38
2022-08-08T12:48:37.438Z,33.26
2022-08-08T12:50:11.656Z,33.14
2022-08-08T12:51:59.234Z,33.00
2022-08-08T12:53:42.293Z,32.96
2022-08-08T12:55:17.887Z,32.97
2022-08-08T12:57:17.210Z,33.02
2022-08-08T12:58:54.379Z,33.14
2022-08-08T13:00:34.144Z,33.23
2022-08-08T13:02:28.333Z,33.32
2022-08-08T13:04:01.466Z,33.35
2022-08-08T13:06:03.917Z,33.43
2022-08-08T13:08:04.127Z,33.48
2022-08-08T13:10:00.730Z,33.55
2022-08-08T13:12:27.981Z,33.61
2022-08-08T13:13:38.288Z,33.69
2022-08-08T13:15:16.612Z,33.75
2022-08-08T13:16:49.560Z,33.78
2022-08-08T13:18:27.446Z,33.77
2022-08-08T13:20:06.390Z,33.77
2022-08-08T13:21:53.480Z,33.80
2022-08-08T13:23:41.694Z,33.84
2022-08-08T13:25:22.416Z,33.89
2022-08-08T13:27:11.656Z,33.95
2022-08-08T13:28:45.778Z,34.00
2022-08-08T13:30:26.509Z,34.02
2022-08-08T13:32:05.584Z,33.96
2022-08-08T13:33:42.723Z,33.94
2022-08-08T13:35:24.797Z,33.92
2022-08-08T13:37:03.177Z,33.95
2022-08-08T13:38:43.248Z,33.85
2022-08-08T13:40:27.373Z,33.75
2022-08-08T13:42:01.616Z,33.51
2022-08-08T13:43:34.356Z,33.43
2022-08-08T13:45:10.788Z,33.41
2022-08-08T13:47:00.446Z,33.49
2022-08-08T13:48:44.269Z,33.52
2022-08-08T13:50:39.876Z,33.61
2022-08-08T13:52:35.752Z,33.70
2022-08-08T13:54:06.346Z,33.77
2022-08-08T13:55:41.028Z,33.75
2022-08-08T13:57:17.092Z,33.75
2022-08-08T13:58:57.914Z,33.75
2022-08-08T14:00:40.674Z,33.66
2022-08-08T14:02:33.212Z,33.47
2022-08-08T14:04:05.835Z,33.47
2022-08-08T14:06:00.463Z,33.42
2022-08-08T14:07:38.587Z,33.46
2022-08-08T14:09:25.015Z,33.52
2022-08-08T14:11:02.729Z,33.57
2022-08-08T14:12:37.575Z,33.58
2022-08-08T14:14:12.261Z,33.60
2022-08-08T14:16:02.643Z,33.64
2022-08-08T14:17:57.139Z,33.63
2022-08-08T14:19:54.241Z,33.69
2022-08-08T14:21:48.761Z,33.75
2022-08-08T14:24:04.716Z,33.76
2022-08-08T14:25:18.114Z,33.77
2022-08-08T14:26:55.207Z,33.80
2022-08-08T14:28:29.435Z,33.81
2022-08-08T14:30:18.660Z,33.87
2022-08-08T14:32:11.040Z,33.84
2022-08-08T14:33:45.505Z,33.81
2022-08-08T14:35:35.005Z,33.87
2022-08-08T14:37:08.508Z,33.85
2022-08-08T14:38:51.795Z,33.89
2022-08-08T14:40:26.931Z,33.89
2022-08-08T14:42:07.501Z,33.89
2022-08-08T14:44:10.498Z,33.90
2022-08-08T14:46:01.308Z,33.89
2022-08-08T14:47:53.587Z,33.84
2022-08-08T14:49:37.738Z,33.83
2022-08-08T14:51:47.245Z,33.80
2022-08-08T14:53:24.285Z,33.80
2022-08-08T14:54:58.062Z,33.80
2022-08-08T14:56:30.454Z,33.81
2022-08-08T14:58:11.719Z,33.79
2022-08-08T14:59:50.831Z,33.75
2022-08-08T15:01:40.521Z,33.76
2022-08-08T15:03:15.689Z,33.67
2022-08-08T15:04:48.909Z,33.63
2022-08-08T15:06:21.317Z,33.62
2022-08-08T15:08:00.792Z,33.59
2022-08-08T15:09:33.055Z,33.50
2022-08-08T15:11:11.680Z,33.54
2022-08-08T15:12:52.513Z,33.48
2022-08-08T15:14:26.583Z,33.44
2022-08-08T15:16:01.264Z,33.36
2022-08-08T15:17:36.604Z,33.35
2022-08-08T15:19:09.091Z,33.33
2022-08-08T15:20:41.897Z,33.31
2022-08-08T15:22:23.330Z,33.30
2022-08-08T15:23:55.991Z,33.29
2022-08-08T15:25:33.246Z,33.24
2022-08-08T15:27:11.987Z,33.19
2022-08-08T15:28:58.824Z,33.12
2022-08-08T15:30:32.350Z,33.10
2022-08-08T15:32:22.554Z,33.09
2022-08-08T15:33:58.971Z,33.05
2022-08-08T15:35:32.005Z,33.04
2022-08-08T15:37:13.120Z,33.04
2022-08-08T15:38:50.178Z,33.03
2022-08-08T15:40:23.226Z,33.01
2022-08-08T15:42:01.719Z,32.98
2022-08-08T15:43:36.132Z,32.87
2022-08-08T15:45:11.328Z,32.85
2022-08-08T15:46:45.203Z,32.79
2022-08-08T15:48:17.859Z,32.77
2022-08-08T15:49:53.437Z,32.75
2022-08-08T15:51:32.794Z,32.74
2022-08-08T15:53:06.465Z,32.68
2022-08-08T15:54:46.056Z,32.69
2022-08-08T15:56:20.437Z,32.64
2022-08-08T15:57:52.934Z,32.61
2022-08-08T16:00:06.745Z,32.57
2022-08-08T16:01:18.436Z,32.56
2022-08-08T16:02:53.507Z,32.53
2022-08-08T16:04:31.224Z,32.49
2022-08-08T16:06:04.028Z,32.47
2022-08-08T16:07:50.924Z,32.44
2022-08-08T16:13:11.480Z,32.40
2022-08-08T16:13:11.639Z,32.43
2022-08-08T16:13:31.916Z,32.38
2022-08-08T16:15:03.977Z,32.34
2022-08-08T16:16:40.987Z,32.31
2022-08-08T16:18:15.579Z,32.23
2022-08-08T16:20:00.064Z,32.17
2022-08-08T16:21:33.986Z,32.15
2022-08-08T16:23:06.151Z,32.06
2022-08-08T16:24:43.693Z,31.97
2022-08-08T16:26:19.571Z,31.91
2022-08-08T16:28:05.778Z,31.87
2022-08-08T16:30:08.810Z,31.82
2022-08-08T16:31:49.669Z,31.81
2022-08-08T16:33:35.997Z,31.77
2022-08-08T16:35:12.048Z,31.72
2022-08-08T16:36:49.322Z,31.71
2022-08-08T16:38:31.573Z,31.66
2022-08-08T16:40:04.909Z,31.62
2022-08-08T16:41:39.444Z,31.58
2022-08-08T16:43:14.903Z,31.53
2022-08-08T16:44:53.944Z,31.47
2022-08-08T16:46:44.787Z,31.41
2022-08-08T16:48:18.573Z,31.35
2022-08-08T16:49:50.902Z,31.31
2022-08-08T16:55:00.446Z,31.25
2022-08-08T16:55:04.474Z,31.20
2022-08-08T16:55:42.905Z,31.11
2022-08-08T16:57:22.835Z,31.06
2022-08-08T16:58:56.619Z,30.99
2022-08-08T17:00:29.583Z,30.90
2022-08-08T17:02:02.073Z,30.83
2022-08-08T17:03:59.824Z,30.76
2022-08-08T17:05:31.291Z,30.73
2022-08-08T17:07:17.738Z,30.68
2022-08-08T17:08:51.155Z,30.61
2022-08-08T17:10:23.498Z,30.57
2022-08-08T17:11:59.414Z,30.51
2022-08-08T17:13:49.749Z,30.44
2022-08-08T17:15:23.680Z,30.36
2022-08-08T17:16:58.306Z,30.29
2022-08-08T17:18:31.383Z,30.19
2022-08-08T17:20:05.256Z,30.14
2022-08-08T17:21:41.248Z,30.06
2022-08-08T17:23:17.632Z,29.97
2022-08-08T17:25:07.145Z,29.87
2022-08-08T17:26:39.740Z,29.75
2022-08-08T17:28:12.132Z,29.66
2022-08-08T17:29:56.488Z,29.57
2022-08-08T17:31:44.225Z,29.50
2022-08-08T17:34:53.489Z,29.39
2022-08-08T17:35:52.327Z,29.30
2022-08-08T17:37:06.637Z,29.18
2022-08-08T17:38:41.581Z,29.07
2022-08-08T17:40:15.199Z,28.98
2022-08-08T17:41:48.475Z,28.82
2022-08-08T17:43:22.350Z,28.66
2022-08-08T17:44:55.298Z,28.52
2022-08-08T17:46:48.111Z,28.38
2022-08-08T17:48:31.011Z,28.21
2022-08-08T17:50:04.745Z,28.10
2022-08-08T17:51:38.112Z,27.96
2022-08-08T17:53:16.212Z,27.81
2022-08-08T17:54:56.166Z,27.69
2022-08-08T17:56:29.016Z,27.57
2022-08-08T17:58:03.573Z,27.48
2022-08-08T17:59:36.065Z,27.45
2022-08-08T18:01:29.827Z,27.38
2022-08-08T18:03:13.334Z,27.36
2022-08-08T18:04:50.578Z,27.31
2022-08-08T18:06:24.021Z,27.27
2022-08-08T18:08:04.588Z,27.16
2022-08-08T18:09:38.809Z,27.06
2022-08-08T18:11:15.253Z,26.97
2022-08-08T18:12:48.086Z,26.87
2022-08-08T18:14:22.128Z,26.79
2022-08-08T18:16:00.090Z,26.70
2022-08-08T18:18:09.932Z,26.62
2022-08-08T18:19:30.568Z,26.58
2022-08-08T18:21:10.696Z,26.56
2022-08-08T18:22:55.767Z,26.56
2022-08-08T18:24:30.185Z,26.52
2022-08-08T18:26:04.058Z,26.47
2022-08-08T18:27:38.162Z,26.37
2022-08-08T18:29:15.324Z,26.33
2022-08-08T18:30:48.000Z,26.25
2022-08-08T18:32:20.967Z,26.15
2022-08-08T18:34:12.478Z,26.06
2022-08-08T18:35:48.499Z,25.97
2022-08-08T18:37:34.193Z,25.83
2022-08-08T18:39:07.166Z,25.76
2022-08-08T18:40:39.450Z,25.64
2022-08-08T18:42:16.524Z,25.53
2022-08-08T18:43:50.329Z,25.51
2022-08-08T18:46:00.285Z,25.46
2022-08-08T18:47:16.564Z,25.43
2022-08-08T18:48:48.969Z,25.34
2022-08-08T18:50:24.361Z,25.33
2022-08-08T18:51:57.289Z,25.26
2022-08-08T18:54:02.695Z,25.19
2022-08-08T18:55:23.368Z,25.15
2022-08-08T18:57:02.245Z,25.16
2022-08-08T18:58:37.536Z,25.17
2022-08-08T19:00:16.890Z,25.09
2022-08-08T19:02:17.938Z,25.02
2022-08-08T19:04:09.962Z,24.95
2022-08-08T19:05:45.239Z,24.87
2022-08-08T19:07:23.537Z,24.80
2022-08-08T19:08:56.088Z,24.79
2022-08-08T19:10:29.526Z,24.77
2022-08-08T19:12:02.565Z,24.77
2022-08-08T19:13:53.173Z,24.74
2022-08-08T19:15:33.824Z,24.71
2022-08-08T19:17:06.569Z,24.72
2022-08-08T19:18:51.801Z,24.70
2022-08-08T19:20:29.872Z,24.64
2022-08-08T19:22:04.689Z,24.54
2022-08-08T19:23:37.003Z,24.53
2022-08-08T19:26:01.341Z,24.52
2022-08-08T19:27:06.248Z,24.59
2022-08-08T19:28:39.221Z,24.56
2022-08-08T19:30:24.615Z,24.53
2022-08-08T19:31:58.726Z,24.47
2022-08-08T19:33:51.819Z,24.53
2022-08-08T19:35:45.169Z,24.67
2022-08-08T19:37:18.165Z,24.73
2022-08-08T19:39:10.244Z,24.95
2022-08-08T19:40:42.888Z,25.19
2022-08-08T19:42:16.649Z,25.42
2022-08-08T19:44:00.869Z,25.62
2022-08-08T19:45:59.957Z,25.76
2022-08-08T19:47:34.068Z,25.83
2022-08-08T19:49:07.605Z,25.85
2022-08-08T19:50:41.974Z,25.82
2022-08-08T19:52:14.294Z,25.78
2022-08-08T19:54:06.624Z,25.73
2022-08-08T19:55:39.813Z,25.71
2022-08-08T19:57:16.619Z,25.68
2022-08-08T19:58:51.882Z,25.71
2022-08-08T20:00:30.118Z,25.73
2022-08-08T20:02:04.451Z,25.67
2022-08-08T20:04:01.519Z,25.70
2022-08-08T20:06:13.433Z,25.61
2022-08-08T20:08:38.813Z,25.53
2022-08-08T20:09:15.866Z,25.48
2022-08-08T20:10:49.461Z,25.45
2022-08-08T20:12:32.634Z,25.42
2022-08-08T20:14:32.425Z,25.39
2022-08-08T20:16:01.222Z,25.33
2022-08-08T20:17:33.845Z,25.27
2022-08-08T20:19:09.920Z,25.19
2022-08-08T20:20:45.265Z,25.11
2022-08-08T20:22:26.580Z,25.03
2022-08-08T20:24:03.330Z,24.93
2022-08-08T20:25:37.608Z,24.91
2022-08-08T20:27:09.920Z,24.83
2022-08-08T20:28:52.096Z,24.74
2022-08-08T20:30:56.328Z,24.75
2022-08-08T20:32:22.223Z,24.61
2022-08-08T20:34:27.703Z,24.58
2022-08-08T20:35:56.784Z,24.53
2022-08-08T20:37:52.769Z,24.45
2022-08-08T20:39:24.168Z,24.38
2022-08-08T20:40:59.845Z,24.33
2022-08-08T20:42:32.831Z,24.24
2022-08-08T20:44:06.056Z,24.16
2022-08-08T20:45:57.687Z,24.09
2022-08-08T20:47:36.375Z,24.00
2022-08-08T20:49:11.271Z,23.93
2022-08-08T20:50:45.191Z,23.83
2022-08-08T20:52:17.268Z,23.75
2022-08-08T20:53:59.476Z,23.68
2022-08-08T20:55:35.808Z,23.59
2022-08-08T20:57:18.768Z,23.52
2022-08-08T20:58:51.421Z,23.46
2022-08-08T21:00:25.008Z,23.43
2022-08-08T21:02:06.205Z,23.37
2022-08-08T21:03:59.633Z,23.33
2022-08-08T21:05:32.606Z,23.31
2022-08-08T21:07:47.624Z,23.30
2022-08-08T21:09:17.423Z,23.23
2022-08-08T21:10:50.724Z,23.10
2022-08-08T21:12:32.166Z,23.03
2022-08-08T21:14:07.485Z,22.96
2022-08-08T21:16:04.053Z,22.94
2022-08-08T21:17:33.141Z,22.90
2022-08-08T21:19:05.666Z,22.88
2022-08-08T21:20:43.210Z,22.83
2022-08-08T21:22:22.840Z,22.79
2022-08-08T21:24:03.717Z,22.74
2022-08-08T21:25:39.617Z,22.68
2022-08-08T21:27:15.567Z,22.65
2022-08-08T21:29:03.913Z,22.60
2022-08-08T21:30:39.879Z,22.57
2022-08-08T21:32:14.240Z,22.52
2022-08-08T21:33:52.578Z,22.47
2022-08-08T21:36:14.975Z,22.37
2022-08-08T21:37:19.204Z,22.37
2022-08-08T21:38:51.930Z,22.38
2022-08-08T21:40:31.011Z,22.39
2022-08-08T21:42:04.141Z,22.34
2022-08-08T21:43:36.764Z,22.37
2022-08-08T21:45:44.771Z,22.31
2022-08-08T21:48:05.670Z,22.27
2022-08-08T21:48:55.508Z,22.22
2022-08-08T21:50:28.063Z,22.19
2022-08-08T21:54:30.707Z,22.10
2022-08-08T21:54:34.916Z,22.15
2022-08-08T21:56:18.216Z,22.05
2022-08-08T21:57:42.086Z,21.98
2022-08-08T21:59:26.413Z,21.89
2022-08-08T22:01:27.862Z,21.89
2022-08-08T22:03:00.392Z,21.81
2022-08-08T22:04:33.845Z,21.75
2022-08-08T22:06:06.097Z,21.69
2022-08-08T22:07:48.532Z,21.65
2022-08-08T22:09:26.860Z,21.63
2022-08-08T22:11:48.216Z,21.62
2022-08-08T22:13:18.505Z,21.61
2022-08-08T22:14:53.143Z,21.53
2022-08-08T22:16:25.312Z,21.49
2022-08-08T22:17:58.198Z,21.47
2022-08-08T22:20:11.087Z,21.40
2022-08-08T22:21:23.636Z,21.37
2022-08-08T22:23:07.852Z,21.36
2022-08-08T22:24:40.183Z,21.32
2022-08-08T22:26:26.597Z,21.35
2022-08-08T22:28:14.974Z,21.29
2022-08-08T22:29:58.987Z,21.23
2022-08-08T22:31:35.455Z,21.23
2022-08-08T22:34:10.414Z,21.22
2022-08-08T22:35:03.573Z,21.21
2022-08-08T22:36:35.963Z,21.19
2022-08-08T22:38:08.181Z,21.20
2022-08-08T22:39:51.301Z,21.22
2022-08-08T22:41:32.464Z,21.23
2022-08-08T22:43:04.685Z,21.21
2022-08-08T22:44:38.117Z,21.20
2022-08-08T22:46:10.755Z,21.18
2022-08-08T22:47:48.758Z,21.18
2022-08-08T22:49:23.824Z,21.16
2022-08-08T22:50:56.384Z,21.17
2022-08-08T22:52:33.348Z,21.17
2022-08-08T22:54:31.342Z,21.17
2022-08-08T22:56:01.644Z,21.19
2022-08-08T22:57:43.705Z,21.19
2022-08-08T22:59:21.243Z,21.20
2022-08-08T23:00:54.686Z,21.20
2022-08-08T23:02:29.283Z,21.20
2022-08-08T23:04:01.405Z,21.19
2022-08-08T23:05:38.558Z,21.20
2022-08-08T23:07:22.123Z,21.18
2022-08-08T23:09:14.104Z,21.15
2022-08-08T23:10:53.092Z,21.14
2022-08-08T23:12:40.335Z,21.13
2022-08-08T23:14:13.087Z,21.12
2022-08-08T23:16:39.154Z,21.09
2022-08-08T23:17:53.884Z,21.05
2022-08-08T23:19:30.913Z,21.02
2022-08-08T23:21:05.676Z,20.98
2022-08-08T23:22:39.965Z,21.00
2022-08-08T23:24:12.067Z,21.01
2022-08-08T23:25:48.118Z,20.99
2022-08-08T23:27:38.970Z,20.97
2022-08-08T23:29:14.501Z,20.92
2022-08-08T23:30:48.410Z,20.87
2022-08-08T23:32:20.398Z,20.81
2022-08-08T23:34:17.441Z,20.81
2022-08-08T23:36:07.289Z,20.81
2022-08-08T23:38:02.924Z,20.84
2022-08-08T23:39:41.866Z,20.81
2022-08-08T23:41:25.115Z,20.76
2022-08-08T23:43:04.471Z,20.73
2022-08-08T23:44:38.585Z,20.71
2022-08-08T23:49:03.737Z,20.67
2022-08-08T23:49:06.161Z,20.67
2022-08-08T23:50:03.259Z,20.64
2022-08-08T23:51:41.863Z,20.65
2022-08-08T23:54:05.092Z,20.65
2022-08-08T23:55:22.682Z,20.60
2022-08-08T23:56:55.099Z,20.54
2022-08-08T23:58:37.164Z,20.51
